Terminal Aerodrome Forecast
Issued by NWS Paducah, KY

Home | Current Version | Previous Version | Text Only | Print | Product List | Glossary On
Versions: 1 2 3 4 5 6 7 8 9 10 11 12
000
FTUS43 KPAH 202323
TAFEVV
TAF
KEVV 202323Z 2100/2124 24008KT P6SM SCT250
     FM210400 22003KT P6SM SKC
     FM211300 22006KT P6SM SCT050=

USA.gov is the U.S. government's official web portal to all federal, state and local government web resources and services.